Okanogan, WA

7:07 PM PDT on July 28, 2015 (GMT -0700)
Omak | | Change Station
CLOSE
Current Station
Airport
Location: Omak,
Elevation: 1302 ft
Nearby Weather Stations

Elev 1302 ft 48.46 °N, 119.52 °W | Updated 14 minutes ago

Clear
Clear
84 °F
Feels Like 84 °F
N
5
Wind Variable Wind from SSE

Today
High -- | Low -- °F
--% Chance of Precip.
Yesterday
High -- | Low -- °F
Precip. -- in
5:27 AM 8:40 PM
Waxing Gibbous, 93% visible
Pressure 30.06 in
Visibility 10.0 miles
Clouds Clear
Dew Point 36 °F
Humidity 18%
Rainfall 0.00 in
Snow Depth Not available.
UV 1 out of 12
Pollen 5.20 out of 12
Air Quality Not available.
Flu Activity Not available.
METAR KOMK 290153Z AUTO 16004KT 10SM CLR 29/02 A3007 RMK AO2 SLP177 T02890022

More Conditions Fewer Conditions

Pressure 30.06 in
Visibility 10.0 miles
Clouds Clear
Dew Point 36 °F
Humidity 18%
Rainfall 0.00 in
Snow Depth Not available.
UV 1 out of 12
Pollen 5.20 out of 12
Air Quality Not available.
Flu Activity Not available.
METAR KOMK 290153Z AUTO 16004KT 10SM CLR 29/02 A3007 RMK AO2 SLP177 T02890022

More Conditions Fewer Conditions

10-Day Weather Forecast

×

Almanac

Astronomy

Jul. 28, 2015 Rise Set
Actual Time
Civil Twilight
Nautical Twilight
Astronomical Twilight
Moon
Length of Visible Light
Length of Day
Tomorrow will be .
, % of the Moon is Illuminated

Today's Extremes

State Highs State Lows

Community

WunderPhotos

Upload Photos

1,842,008 photos uploaded!

WunderBlogs® & News

Nearby

Air Quality

  Air Quality AQ Index Pollutant
Not available.

Snow Depth

Station Depth Elevation

Earthquake Activity

City Distance Mag. Time & Date
Minimum magnitude displayed is 2.5.

Coastal Water Temperatures

Place Temperature

Stations

Nearby Weather Stations

Station Location Temp. Windchill Dew Point Humidity Wind Precip. Elev Updated Type